Time;durP1;ratioP1;P1;durP2;ratioP2;P2;SDS_P1;SDS_P2;PMS_P1;PMS_P2;Temp;Humidity;BMP_temperature;BMP_pressure;BME280_temperature;BME280_humidity;BME280_pressure;Samples;Min_cycle;Max_cycle;Signal;HPM_P1;HPM_P2
2024/03/05 00:01:37;;;;;;;14.77;12.77;;;;;;;;;;6212718;23;20236;-80
2024/03/05 00:04:05;;;;;;;15.53;12.90;;;;;;;;;;6211100;23;20169;-81
2024/03/05 00:06:37;;;;;;;14.87;12.40;;;;;;;;;;6212175;23;20193;-80
2024/03/05 00:09:07;;;;;;;14.17;12.17;;;;;;;;;;6211484;23;20250;-81
2024/03/05 00:11:35;;;;;;;15.30;12.77;;;;;;;;;;6185730;23;20201;-80
2024/03/05 00:14:04;;;;;;;16.80;12.97;;;;;;;;;;6212421;23;20162;-80
2024/03/05 00:16:36;;;;;;;15.07;12.63;;;;;;;;;;6212155;23;20241;-81
2024/03/05 00:19:03;;;;;;;14.37;12.17;;;;;;;;;;6185745;23;20200;-80
2024/03/05 00:21:31;;;;;;;14.60;12.90;;;;;;;;;;6212013;23;20204;-79
2024/03/05 00:24:00;;;;;;;16.70;12.57;;;;;;;;;;6212188;23;20185;-80
2024/03/05 00:26:27;;;;;;;13.87;12.10;;;;;;;;;;6210617;23;20747;-78
2024/03/05 00:28:56;;;;;;;14.57;12.43;;;;;;;;;;6210961;23;20173;-80
2024/03/05 00:31:25;;;;;;;14.70;12.77;;;;;;;;;;6212102;23;20170;-81
2024/03/05 00:33:52;;;;;;;13.30;11.70;;;;;;;;;;6210966;23;20607;-79
2024/03/05 00:36:20;;;;;;;14.00;12.20;;;;;;;;;;6210375;23;20170;-82
2024/03/05 00:38:48;;;;;;;13.70;12.27;;;;;;;;;;6209190;23;20252;-79
2024/03/05 00:41:17;;;;;;;14.10;12.20;;;;;;;;;;6210240;23;20663;-80
2024/03/05 00:43:45;;;;;;;13.97;11.77;;;;;;;;;;6210514;23;20207;-80
2024/03/05 00:46:16;;;;;;;14.03;12.53;;;;;;;;;;6210283;23;20703;-79
2024/03/05 00:48:43;;;;;;;13.03;11.63;;;;;;;;;;6211885;23;20173;-81
2024/03/05 00:51:11;;;;;;;13.00;11.60;;;;;;;;;;6185801;23;20173;-80
2024/03/05 00:53:38;;;;;;;12.80;11.33;;;;;;;;;;6210757;23;20170;-81
2024/03/05 00:56:06;;;;;;;13.43;12.00;;;;;;;;;;6210474;23;20240;-80
2024/03/05 00:58:33;;;;;;;14.33;12.00;;;;;;;;;;6210659;23;20220;-80
2024/03/05 01:01:01;;;;;;;14.13;12.13;;;;;;;;;;6210996;23;20175;-79
2024/03/05 01:03:29;;;;;;;14.63;12.13;;;;;;;;;;6212257;23;20378;-80
2024/03/05 01:05:56;;;;;;;14.37;12.87;;;;;;;;;;6211023;23;20186;-79
2024/03/05 01:08:23;;;;;;;13.17;11.60;;;;;;;;;;6212349;23;20177;-81
2024/03/05 01:10:51;;;;;;;14.97;12.47;;;;;;;;;;6212625;23;20166;-80
2024/03/05 01:13:19;;;;;;;14.83;12.47;;;;;;;;;;6210650;23;20551;-79
2024/03/05 01:15:46;;;;;;;16.87;12.33;;;;;;;;;;6186046;23;20169;-79
2024/03/05 01:18:20;;;;;;;16.37;12.03;;;;;;;;;;6213429;23;20888;-80
2024/03/05 01:20:48;;;;;;;15.63;11.77;;;;;;;;;;6214608;23;20216;-80
2024/03/05 01:23:16;;;;;;;14.47;12.27;;;;;;;;;;6212783;23;20182;-79
2024/03/05 01:25:43;;;;;;;13.90;12.20;;;;;;;;;;6213155;23;20228;-79
2024/03/05 01:28:14;;;;;;;16.10;12.23;;;;;;;;;;6214183;23;20185;-80
2024/03/05 01:30:43;;;;;;;14.50;12.37;;;;;;;;;;6214258;23;20162;-78
2024/03/05 01:33:19;;;;;;;13.93;12.40;;;;;;;;;;6212812;23;20182;-79
2024/03/05 01:35:48;;;;;;;16.53;12.90;;;;;;;;;;6212882;23;20253;-80
2024/03/05 01:38:15;;;;;;;15.97;12.50;;;;;;;;;;6212657;23;20189;-78
2024/03/05 01:40:43;;;;;;;14.53;12.50;;;;;;;;;;6214147;23;20169;-80
2024/03/05 01:43:11;;;;;;;15.80;12.20;;;;;;;;;;6213059;23;20165;-79
2024/03/05 01:45:38;;;;;;;15.33;12.50;;;;;;;;;;6214465;23;20248;-79
2024/03/05 01:48:08;;;;;;;14.53;12.13;;;;;;;;;;6214277;23;20190;-79
2024/03/05 01:50:36;;;;;;;15.93;12.93;;;;;;;;;;6214140;23;20166;-81
2024/03/05 01:53:04;;;;;;;16.20;13.33;;;;;;;;;;6188105;23;20169;-80
2024/03/05 01:55:32;;;;;;;16.13;13.03;;;;;;;;;;6187940;23;20260;-79
2024/03/05 01:58:03;;;;;;;17.17;13.40;;;;;;;;;;6213552;23;20150;-79
2024/03/05 02:00:33;;;;;;;17.47;12.70;;;;;;;;;;6213115;23;20180;-79
2024/03/05 02:03:04;;;;;;;16.43;13.07;;;;;;;;;;6188161;23;20174;-80
2024/03/05 02:05:32;;;;;;;16.30;13.50;;;;;;;;;;6213064;23;20200;-79
2024/03/05 02:08:00;;;;;;;16.30;13.50;;;;;;;;;;6213029;23;20193;-80
2024/03/05 02:10:31;;;;;;;19.13;13.97;;;;;;;;;;6210927;23;20169;-81
2024/03/05 02:13:01;;;;;;;19.03;14.97;;;;;;;;;;6217769;23;20197;-81
2024/03/05 02:15:30;;;;;;;17.10;14.17;;;;;;;;;;6218175;23;20230;-81
2024/03/05 02:17:57;;;;;;;19.60;14.90;;;;;;;;;;6218275;23;20248;-79
2024/03/05 02:20:26;;;;;;;17.03;14.23;;;;;;;;;;6219304;23;20167;-79
2024/03/05 02:22:53;;;;;;;17.87;14.60;;;;;;;;;;6245708;23;20192;-79
2024/03/05 02:25:21;;;;;;;19.17;14.93;;;;;;;;;;6218840;23;20173;-78
2024/03/05 02:27:51;;;;;;;17.90;14.87;;;;;;;;;;6245193;23;20251;-80
2024/03/05 02:30:22;;;;;;;20.50;16.10;;;;;;;;;;6193434;23;20180;-79
2024/03/05 02:32:51;;;;;;;19.63;15.63;;;;;;;;;;6218104;23;20172;-78
2024/03/05 02:35:18;;;;;;;19.10;15.87;;;;;;;;;;6218535;23;20236;-81
2024/03/05 02:37:46;;;;;;;17.90;15.00;;;;;;;;;;6193454;23;20219;-79
2024/03/05 02:40:14;;;;;;;17.70;14.97;;;;;;;;;;6218294;23;20176;-79
2024/03/05 02:42:42;;;;;;;18.10;15.70;;;;;;;;;;6218345;23;20165;-80
2024/03/05 02:45:11;;;;;;;19.13;15.23;;;;;;;;;;6244968;23;20243;-79
2024/03/05 02:47:41;;;;;;;19.43;16.20;;;;;;;;;;6218039;23;20197;-80
2024/03/05 02:50:09;;;;;;;20.23;16.40;;;;;;;;;;6218650;23;20240;-81
2024/03/05 02:52:41;;;;;;;19.50;16.40;;;;;;;;;;6218025;23;20177;-79
2024/03/05 02:55:09;;;;;;;20.83;16.53;;;;;;;;;;6218549;23;20196;-79
2024/03/05 02:57:38;;;;;;;21.53;16.87;;;;;;;;;;6217950;23;20197;-80
2024/03/05 03:00:08;;;;;;;20.97;16.83;;;;;;;;;;6218403;23;20165;-82
2024/03/05 03:02:38;;;;;;;21.27;16.53;;;;;;;;;;6218546;23;20243;-80
2024/03/05 03:05:06;;;;;;;20.63;16.47;;;;;;;;;;6218204;23;20230;-80
2024/03/05 03:07:35;;;;;;;20.27;15.97;;;;;;;;;;6243776;23;20189;-80
2024/03/05 03:10:03;;;;;;;19.40;16.50;;;;;;;;;;6243582;23;20187;-79
2024/03/05 03:12:36;;;;;;;20.43;16.57;;;;;;;;;;6243830;23;20662;-78
2024/03/05 03:15:06;;;;;;;21.80;17.03;;;;;;;;;;6192457;23;20239;-79
2024/03/05 03:17:34;;;;;;;22.13;16.73;;;;;;;;;;6243596;23;20215;-82
2024/03/05 03:20:03;;;;;;;19.50;16.43;;;;;;;;;;6242624;23;20197;-80
2024/03/05 03:22:32;;;;;;;20.73;17.23;;;;;;;;;;6192088;23;20608;-79
2024/03/05 03:24:59;;;;;;;21.57;17.23;;;;;;;;;;6192054;23;20173;-80
2024/03/05 03:27:28;;;;;;;21.93;16.83;;;;;;;;;;6192056;23;20196;-80
2024/03/05 03:29:55;;;;;;;21.10;16.63;;;;;;;;;;6243532;23;20168;-80
2024/03/05 03:32:23;;;;;;;21.73;16.60;;;;;;;;;;6216416;23;20173;-80
2024/03/05 03:34:51;;;;;;;24.17;18.37;;;;;;;;;;6216835;23;20168;-80
2024/03/05 03:37:18;;;;;;;23.30;18.50;;;;;;;;;;6191651;23;20169;-81
2024/03/05 03:39:48;;;;;;;21.33;17.20;;;;;;;;;;6217571;23;20138;-79
2024/03/05 03:42:16;;;;;;;21.47;17.43;;;;;;;;;;6215944;23;20176;-79
2024/03/05 03:44:43;;;;;;;21.83;17.37;;;;;;;;;;6216501;23;20171;-80
2024/03/05 03:47:13;;;;;;;21.67;16.83;;;;;;;;;;6243225;23;20236;-79
2024/03/05 03:49:48;;;;;;;20.77;16.53;;;;;;;;;;6216330;23;20164;-80
2024/03/05 03:52:15;;;;;;;22.27;17.57;;;;;;;;;;6191428;23;20559;-81
2024/03/05 03:54:43;;;;;;;21.67;17.50;;;;;;;;;;6217015;23;20169;-79
2024/03/05 03:57:10;;;;;;;22.70;17.07;;;;;;;;;;6216654;23;20168;-80
2024/03/05 03:59:37;;;;;;;21.60;17.33;;;;;;;;;;6217031;23;20173;-81
2024/03/05 04:02:05;;;;;;;23.57;17.70;;;;;;;;;;6216836;23;20165;-79
2024/03/05 04:04:32;;;;;;;21.53;17.47;;;;;;;;;;6242777;23;20243;-80
2024/03/05 04:06:59;;;;;;;24.03;17.30;;;;;;;;;;6242879;23;20604;-80
2024/03/05 04:09:27;;;;;;;20.50;16.60;;;;;;;;;;6216661;23;20188;-80
2024/03/05 04:11:54;;;;;;;20.40;16.27;;;;;;;;;;6216095;23;20279;-80
2024/03/05 04:14:22;;;;;;;20.37;17.23;;;;;;;;;;6215968;23;20165;-85
2024/03/05 04:16:49;;;;;;;20.27;16.23;;;;;;;;;;6216144;23;20173;-79
2024/03/05 04:19:19;;;;;;;20.37;16.80;;;;;;;;;;6216885;23;20173;-79
2024/03/05 04:21:46;;;;;;;19.87;15.60;;;;;;;;;;6216799;23;20242;-81
2024/03/05 04:24:14;;;;;;;20.80;16.27;;;;;;;;;;6242916;23;20255;-79
2024/03/05 04:26:42;;;;;;;21.97;17.07;;;;;;;;;;6216908;23;20252;-80
2024/03/05 04:29:16;;;;;;;21.33;16.03;;;;;;;;;;6191195;23;20188;-79
2024/03/05 04:31:47;;;;;;;22.43;16.43;;;;;;;;;;6242751;23;20159;-79
2024/03/05 04:34:20;;;;;;;22.83;17.23;;;;;;;;;;6216337;23;20219;-81
2024/03/05 04:36:51;;;;;;;18.33;15.73;;;;;;;;;;6191088;23;20176;-79
2024/03/05 04:39:23;;;;;;;20.53;16.43;;;;;;;;;;6243206;23;20171;-78
2024/03/05 04:41:50;;;;;;;18.60;15.87;;;;;;;;;;6191102;23;20173;-80
2024/03/05 04:44:17;;;;;;;19.97;15.70;;;;;;;;;;6216151;23;20223;-78
2024/03/05 04:46:46;;;;;;;21.03;16.70;;;;;;;;;;6191352;23;20727;-80
2024/03/05 04:49:15;;;;;;;19.83;16.03;;;;;;;;;;6242852;23;20227;-80
2024/03/05 04:51:42;;;;;;;20.87;16.17;;;;;;;;;;6216261;23;20227;-79
2024/03/05 04:54:10;;;;;;;20.43;15.57;;;;;;;;;;6191322;23;20578;-78
2024/03/05 04:56:38;;;;;;;18.80;15.43;;;;;;;;;;6216900;23;20171;-79
2024/03/05 04:59:05;;;;;;;19.43;15.77;;;;;;;;;;6242942;23;20169;-80
2024/03/05 05:01:34;;;;;;;18.57;14.83;;;;;;;;;;6216653;23;20157;-79
2024/03/05 05:04:02;;;;;;;18.30;15.17;;;;;;;;;;6191156;23;20179;-79
2024/03/05 05:06:31;;;;;;;20.40;16.13;;;;;;;;;;6242750;23;20236;-80
2024/03/05 05:08:58;;;;;;;19.43;15.00;;;;;;;;;;6215552;23;20188;-79
2024/03/05 05:11:26;;;;;;;17.97;14.60;;;;;;;;;;6215275;23;20208;-82
2024/03/05 05:13:54;;;;;;;19.90;15.53;;;;;;;;;;6215271;23;20161;-80
2024/03/05 05:16:21;;;;;;;19.63;15.47;;;;;;;;;;6215830;23;20256;-79
2024/03/05 05:18:48;;;;;;;19.93;15.83;;;;;;;;;;6242176;23;20222;-79
2024/03/05 05:21:16;;;;;;;19.87;16.10;;;;;;;;;;6242521;23;20168;-80
2024/03/05 05:23:43;;;;;;;19.57;15.83;;;;;;;;;;6214347;23;20640;-81
2024/03/05 05:26:15;;;;;;;19.57;15.97;;;;;;;;;;6242494;23;20153;-79
2024/03/05 05:28:43;;;;;;;21.20;16.77;;;;;;;;;;6215973;23;20180;-80
2024/03/05 05:31:21;;;;;;;21.63;16.60;;;;;;;;;;6242728;23;20161;-80
2024/03/05 05:33:49;;;;;;;19.80;16.17;;;;;;;;;;6216016;23;20173;-79
2024/03/05 05:36:16;;;;;;;22.53;16.60;;;;;;;;;;6242686;23;20157;-81
2024/03/05 05:38:44;;;;;;;19.93;15.70;;;;;;;;;;6190883;23;20172;-79
2024/03/05 05:41:11;;;;;;;19.03;15.10;;;;;;;;;;6216050;23;20639;-78
2024/03/05 05:43:40;;;;;;;19.33;16.20;;;;;;;;;;6191001;23;20245;-80
2024/03/05 05:46:14;;;;;;;20.20;16.07;;;;;;;;;;6191556;23;20172;-82
2024/03/05 05:48:48;;;;;;;20.73;15.87;;;;;;;;;;6242674;23;20219;-79
2024/03/05 05:51:18;;;;;;;19.13;15.87;;;;;;;;;;6242773;23;20165;-79
2024/03/05 05:53:45;;;;;;;20.27;16.17;;;;;;;;;;6242241;23;20161;-81
2024/03/05 05:56:17;;;;;;;18.53;15.50;;;;;;;;;;6215629;23;20173;-80
2024/03/05 05:58:44;;;;;;;20.07;16.10;;;;;;;;;;6215307;23;20248;-79
2024/03/05 06:01:13;;;;;;;21.13;15.90;;;;;;;;;;6215938;23;20547;-80
2024/03/05 06:03:44;;;;;;;20.13;16.17;;;;;;;;;;6190795;23;20193;-80
2024/03/05 06:06:13;;;;;;;19.13;15.17;;;;;;;;;;6217642;23;20180;-80
2024/03/05 06:08:40;;;;;;;20.13;15.60;;;;;;;;;;6192728;23;20181;-80
2024/03/05 06:11:08;;;;;;;18.87;15.70;;;;;;;;;;6217651;23;20252;-82
2024/03/05 06:13:35;;;;;;;20.07;16.33;;;;;;;;;;6193059;23;20169;-80
2024/03/05 06:16:07;;;;;;;19.67;15.70;;;;;;;;;;6191458;23;20252;-80
2024/03/05 06:18:36;;;;;;;20.67;16.40;;;;;;;;;;6191083;23;20169;-80
2024/03/05 06:21:07;;;;;;;20.53;15.97;;;;;;;;;;6217973;23;20255;-79
2024/03/05 06:23:37;;;;;;;20.07;16.13;;;;;;;;;;6217301;23;20193;-81
2024/03/05 06:26:05;;;;;;;23.63;17.23;;;;;;;;;;6244803;23;20157;-79
2024/03/05 06:28:32;;;;;;;20.67;16.43;;;;;;;;;;6217757;23;20196;-81
2024/03/05 06:31:01;;;;;;;20.37;16.20;;;;;;;;;;6244677;23;20638;-79
2024/03/05 06:33:28;;;;;;;22.37;17.87;;;;;;;;;;6217698;23;20735;-80
2024/03/05 06:35:55;;;;;;;22.73;17.27;;;;;;;;;;6217267;23;20238;-81
2024/03/05 06:38:23;;;;;;;22.30;17.23;;;;;;;;;;6217300;23;20188;-80
2024/03/05 06:40:54;;;;;;;23.37;16.67;;;;;;;;;;6217770;23;20165;-80
2024/03/05 06:43:32;;;;;;;21.27;16.40;;;;;;;;;;6243973;23;20176;-80
2024/03/05 06:46:00;;;;;;;20.90;16.43;;;;;;;;;;6243200;23;20183;-81
2024/03/05 06:48:30;;;;;;;25.13;21.10;;;;;;;;;;6216637;23;20185;-80
2024/03/05 06:51:00;;;;;;;26.07;21.60;;;;;;;;;;6217269;23;20172;-80
2024/03/05 06:58:59;;;;;;;19.10;15.80;;;;;;;;;;6242405;23;20188;-81
2024/03/05 07:01:27;;;;;;;16.87;14.10;;;;;;;;;;6242760;23;20169;-80
2024/03/05 07:03:54;;;;;;;16.50;13.83;;;;;;;;;;6215839;23;20176;-80
2024/03/05 07:06:23;;;;;;;16.97;14.70;;;;;;;;;;6242741;23;20673;-81
2024/03/05 07:08:53;;;;;;;16.30;13.50;;;;;;;;;;6242535;22;20193;-81
2024/03/05 07:11:21;;;;;;;16.03;13.13;;;;;;;;;;6243079;23;20192;-83
2024/03/05 07:13:48;;;;;;;15.47;13.03;;;;;;;;;;6241690;23;20173;-81
2024/03/05 07:16:17;;;;;;;16.77;13.37;;;;;;;;;;6243278;23;20162;-80
2024/03/05 07:18:47;;;;;;;17.27;13.37;;;;;;;;;;6217249;23;20247;-80
2024/03/05 07:21:17;;;;;;;18.10;13.17;;;;;;;;;;6243466;23;20177;-81
2024/03/05 07:23:46;;;;;;;16.77;13.47;;;;;;;;;;6242567;23;20193;-80
2024/03/05 07:26:14;;;;;;;17.23;13.20;;;;;;;;;;6242895;23;20164;-81
2024/03/05 07:28:45;;;;;;;16.13;12.20;;;;;;;;;;6242388;23;20191;-80
2024/03/05 07:31:14;;;;;;;15.00;12.77;;;;;;;;;;6243039;23;20170;-79
2024/03/05 07:33:41;;;;;;;15.20;11.73;;;;;;;;;;6215430;23;20237;-80
2024/03/05 07:36:09;;;;;;;15.03;11.93;;;;;;;;;;6242785;23;20178;-81
2024/03/05 07:38:36;;;;;;;15.17;12.37;;;;;;;;;;6242077;23;20163;-81
2024/03/05 07:41:03;;;;;;;15.73;12.80;;;;;;;;;;6216256;23;20167;-81
2024/03/05 07:43:47;;;;;;;14.93;12.33;;;;;;;;;;6242033;23;20166;-80
2024/03/05 07:46:18;;;;;;;14.70;12.07;;;;;;;;;;6242401;23;20166;-80
2024/03/05 07:48:49;;;;;;;15.97;13.40;;;;;;;;;;6215315;23;20233;-82
2024/03/05 07:51:18;;;;;;;14.60;12.07;;;;;;;;;;6242202;23;20192;-79
2024/03/05 07:53:55;;;;;;;16.80;13.77;;;;;;;;;;6241756;23;20175;-79
2024/03/05 07:56:22;;;;;;;16.97;14.00;;;;;;;;;;6242020;23;20634;-80
2024/03/05 07:58:50;;;;;;;16.90;12.73;;;;;;;;;;6241825;23;20172;-80
2024/03/05 08:01:17;;;;;;;14.83;12.20;;;;;;;;;;6242058;23;20683;-82
2024/03/05 08:03:44;;;;;;;15.50;11.83;;;;;;;;;;6241728;23;20165;-79
2024/03/05 08:06:11;;;;;;;16.43;12.43;;;;;;;;;;6242280;23;20171;-80
2024/03/05 08:08:40;;;;;;;14.77;11.80;;;;;;;;;;6241628;23;20189;-81
2024/03/05 08:11:11;;;;;;;14.00;11.87;;;;;;;;;;6240799;23;20217;-81
2024/03/05 08:13:39;;;;;;;15.53;12.37;;;;;;;;;;6214579;23;20167;-81
2024/03/05 08:16:08;;;;;;;13.83;11.67;;;;;;;;;;6214753;23;20616;-81
2024/03/05 08:18:35;;;;;;;14.40;12.07;;;;;;;;;;6241375;23;20246;-80
2024/03/05 08:21:03;;;;;;;15.70;11.63;;;;;;;;;;6190045;23;20175;-82
2024/03/05 08:23:30;;;;;;;16.20;11.50;;;;;;;;;;6241290;23;20209;-83
2024/03/05 08:25:58;;;;;;;14.07;11.43;;;;;;;;;;6241811;23;20163;-82
2024/03/05 08:28:25;;;;;;;14.03;11.40;;;;;;;;;;6240680;23;20159;-82
2024/03/05 08:30:53;;;;;;;15.77;11.83;;;;;;;;;;6241640;23;20258;-81
2024/03/05 08:33:21;;;;;;;14.37;10.97;;;;;;;;;;6214879;23;20201;-79
2024/03/05 08:35:48;;;;;;;13.83;12.00;;;;;;;;;;6241168;23;20242;-81
2024/03/05 08:38:15;;;;;;;14.47;11.43;;;;;;;;;;6215183;23;20194;-80
2024/03/05 08:40:42;;;;;;;14.37;11.90;;;;;;;;;;6241526;23;20165;-80
2024/03/05 08:43:09;;;;;;;14.90;11.27;;;;;;;;;;6213308;23;20172;-79
2024/03/05 08:45:37;;;;;;;14.67;11.50;;;;;;;;;;6212789;23;20254;-79
2024/03/05 08:48:04;;;;;;;12.93;11.20;;;;;;;;;;6237703;23;20164;-80
2024/03/05 08:50:31;;;;;;;14.73;11.73;;;;;;;;;;6237727;23;20198;-80
2024/03/05 08:52:58;;;;;;;15.43;11.10;;;;;;;;;;6214833;23;20180;-81
2024/03/05 08:55:26;;;;;;;15.97;11.17;;;;;;;;;;6214480;23;20175;-80
2024/03/05 08:57:56;;;;;;;12.50;10.97;;;;;;;;;;6241668;23;20599;-79
2024/03/05 09:00:23;;;;;;;14.17;11.27;;;;;;;;;;6241893;23;20171;-81
2024/03/05 09:03:07;;;;;;;14.37;11.60;;;;;;;;;;6241688;23;20153;-80
2024/03/05 09:05:35;;;;;;;14.80;11.43;;;;;;;;;;6241856;23;20626;-80
2024/03/05 09:08:03;;;;;;;14.80;11.90;;;;;;;;;;6215254;23;20161;-79
2024/03/05 09:10:30;;;;;;;14.23;11.67;;;;;;;;;;6241535;23;20272;-81
2024/03/05 09:12:58;;;;;;;14.60;11.33;;;;;;;;;;6215058;23;20271;-81
2024/03/05 09:15:28;;;;;;;13.90;11.43;;;;;;;;;;6241566;23;20168;-81
2024/03/05 09:17:54;;;;;;;14.53;11.03;;;;;;;;;;6241561;23;20194;-80
2024/03/05 09:20:21;;;;;;;14.90;11.50;;;;;;;;;;6241664;23;20171;-81
2024/03/05 09:22:49;;;;;;;17.93;11.77;;;;;;;;;;6241373;23;20249;-82
2024/03/05 09:25:17;;;;;;;15.07;11.00;;;;;;;;;;6241749;23;20164;-80
2024/03/05 09:27:46;;;;;;;12.80;10.50;;;;;;;;;;6241596;23;20184;-80
2024/03/05 09:30:14;;;;;;;11.53;9.87;;;;;;;;;;6241384;23;20231;-79
2024/03/05 09:32:43;;;;;;;11.33;10.07;;;;;;;;;;6241592;23;20193;-79
2024/03/05 09:35:18;;;;;;;13.87;11.27;;;;;;;;;;6241562;23;20150;-81
2024/03/05 09:37:45;;;;;;;12.80;10.53;;;;;;;;;;6241764;23;20177;-80
2024/03/05 09:40:16;;;;;;;13.07;10.37;;;;;;;;;;6242697;23;20166;-79
2024/03/05 09:42:45;;;;;;;12.63;10.23;;;;;;;;;;6243712;23;20157;-82
2024/03/05 09:45:14;;;;;;;12.80;9.77;;;;;;;;;;6243496;23;20517;-80
2024/03/05 09:47:42;;;;;;;14.27;10.30;;;;;;;;;;6242185;23;20801;-80
2024/03/05 09:50:12;;;;;;;13.93;9.90;;;;;;;;;;6243122;23;20348;-78
2024/03/05 09:52:43;;;;;;;12.43;10.23;;;;;;;;;;6243418;23;20181;-78
2024/03/05 09:55:12;;;;;;;12.03;10.20;;;;;;;;;;6243363;23;20227;-80
2024/03/05 09:57:42;;;;;;;13.73;10.30;;;;;;;;;;6243774;23;20207;-82
2024/03/05 10:00:17;;;;;;;15.63;10.23;;;;;;;;;;6243357;23;20168;-80
2024/03/05 10:02:51;;;;;;;10.70;9.40;;;;;;;;;;6243233;23;20499;-81
2024/03/05 10:05:19;;;;;;;14.57;10.00;;;;;;;;;;6216387;23;20571;-80
2024/03/05 10:07:47;;;;;;;14.20;10.50;;;;;;;;;;6242883;23;20161;-79
2024/03/05 10:10:19;;;;;;;12.00;10.13;;;;;;;;;;6243179;23;20185;-81
2024/03/05 10:12:46;;;;;;;13.07;10.70;;;;;;;;;;6243265;23;20193;-80
2024/03/05 10:15:20;;;;;;;13.50;10.57;;;;;;;;;;6243131;23;20214;-83
2024/03/05 10:17:49;;;;;;;14.23;10.40;;;;;;;;;;6242738;23;20223;-81
2024/03/05 10:20:29;;;;;;;14.57;11.10;;;;;;;;;;6243888;23;20168;-80
2024/03/05 10:22:57;;;;;;;15.07;11.93;;;;;;;;;;6243653;23;20149;-80
2024/03/05 10:25:27;;;;;;;13.13;10.43;;;;;;;;;;6243938;23;20154;-79
2024/03/05 10:27:54;;;;;;;14.67;12.20;;;;;;;;;;6243603;23;20192;-81
2024/03/05 10:30:22;;;;;;;13.30;11.57;;;;;;;;;;6243467;23;20287;-79
2024/03/05 10:32:53;;;;;;;13.80;11.60;;;;;;;;;;6243867;23;20173;-79
2024/03/05 10:35:20;;;;;;;13.60;10.30;;;;;;;;;;6243773;23;20659;-79
2024/03/05 10:38:03;;;;;;;12.77;11.33;;;;;;;;;;6243830;23;20161;-79
2024/03/05 10:40:37;;;;;;;12.93;10.00;;;;;;;;;;6243754;23;20240;-78
2024/03/05 10:43:07;;;;;;;15.60;12.70;;;;;;;;;;6243501;23;20207;-79
2024/03/05 10:45:35;;;;;;;15.43;10.60;;;;;;;;;;6243407;23;20161;-81
2024/03/05 10:48:03;;;;;;;13.43;10.73;;;;;;;;;;6242900;23;20251;-79
2024/03/05 10:50:33;;;;;;;15.97;11.93;;;;;;;;;;6241520;23;20181;-79
2024/03/05 10:53:01;;;;;;;14.97;10.50;;;;;;;;;;6240782;23;20161;-80
2024/03/05 10:55:28;;;;;;;14.57;11.00;;;;;;;;;;6215732;23;20238;-79
2024/03/05 10:58:19;;;;;;;14.40;11.30;;;;;;;;;;6241827;23;20252;-82
2024/03/05 11:00:47;;;;;;;15.63;12.10;;;;;;;;;;6243459;23;20608;-80
2024/03/05 11:03:16;;;;;;;14.47;11.50;;;;;;;;;;6243173;23;20160;-79
2024/03/05 11:05:50;;;;;;;14.37;10.83;;;;;;;;;;6243392;23;20169;-80
2024/03/05 11:08:18;;;;;;;13.07;10.33;;;;;;;;;;6243122;23;20203;-79
2024/03/05 11:10:55;;;;;;;13.13;10.60;;;;;;;;;;6216907;23;20185;-82
2024/03/05 11:13:23;;;;;;;13.07;10.87;;;;;;;;;;6242659;23;20197;-80
2024/03/05 11:15:52;;;;;;;15.33;11.23;;;;;;;;;;6216856;23;20165;-80
2024/03/05 11:18:35;;;;;;;13.50;10.57;;;;;;;;;;6241706;23;20252;-81
2024/03/05 11:21:08;;;;;;;15.47;11.50;;;;;;;;;;6242966;23;20164;-80
2024/03/05 11:23:40;;;;;;;13.57;10.43;;;;;;;;;;6242911;23;20184;-81
2024/03/05 11:26:16;;;;;;;12.60;10.17;;;;;;;;;;6243060;23;20150;-81
2024/03/05 11:28:43;;;;;;;14.43;11.03;;;;;;;;;;6243111;23;20260;-79
2024/03/05 11:31:16;;;;;;;13.57;10.70;;;;;;;;;;6243263;23;20181;-80
2024/03/05 11:34:16;;;;;;;14.33;10.97;;;;;;;;;;6242933;23;20164;-80
2024/03/05 11:36:47;;;;;;;13.23;10.90;;;;;;;;;;6231212;22;20200;-80
2024/03/05 11:39:19;;;;;;;19.47;12.00;;;;;;;;;;6241055;23;20146;-80
2024/03/05 11:41:50;;;;;;;15.60;12.00;;;;;;;;;;6240778;23;20216;-80
2024/03/05 11:44:41;;;;;;;17.30;11.93;;;;;;;;;;6240839;23;20604;-80
2024/03/05 11:47:10;;;;;;;14.80;11.93;;;;;;;;;;6214203;23;20199;-81
2024/03/05 11:49:37;;;;;;;15.87;11.87;;;;;;;;;;6242264;23;20219;-81
2024/03/05 11:52:05;;;;;;;15.70;12.07;;;;;;;;;;6243005;23;20173;-80
2024/03/05 11:54:35;;;;;;;15.70;11.97;;;;;;;;;;6242533;23;20172;-80
2024/03/05 11:57:03;;;;;;;17.80;12.13;;;;;;;;;;6240227;23;20169;-79
2024/03/05 11:59:36;;;;;;;17.03;11.43;;;;;;;;;;6241899;23;20546;-81
2024/03/05 12:02:11;;;;;;;14.97;11.67;;;;;;;;;;6241588;23;20178;-81
2024/03/05 12:04:39;;;;;;;13.70;11.47;;;;;;;;;;6213411;23;20540;-81
2024/03/05 12:07:11;;;;;;;14.30;12.27;;;;;;;;;;6213893;23;20168;-79
2024/03/05 12:09:39;;;;;;;16.53;12.43;;;;;;;;;;6213560;23;20248;-79
2024/03/05 12:12:10;;;;;;;13.80;11.73;;;;;;;;;;6241388;23;20193;-80
2024/03/05 12:14:40;;;;;;;16.10;12.20;;;;;;;;;;6241210;23;20635;-80
2024/03/05 12:17:08;;;;;;;15.40;12.43;;;;;;;;;;6214252;23;20488;-80
2024/03/05 12:19:40;;;;;;;14.57;11.43;;;;;;;;;;6241356;23;20169;-80
2024/03/05 12:22:10;;;;;;;13.27;11.07;;;;;;;;;;6241581;23;20165;-79
2024/03/05 12:24:38;;;;;;;13.43;10.77;;;;;;;;;;6241045;23;20185;-78
2024/03/05 12:27:06;;;;;;;13.03;10.27;;;;;;;;;;6241105;23;20228;-79
2024/03/05 12:29:33;;;;;;;12.27;10.33;;;;;;;;;;6240818;23;20169;-80
2024/03/05 12:32:08;;;;;;;12.10;9.87;;;;;;;;;;6240550;23;20196;-81
2024/03/05 12:34:36;;;;;;;11.43;9.83;;;;;;;;;;6239073;23;20169;-81
2024/03/05 12:37:09;;;;;;;12.20;9.53;;;;;;;;;;6240831;23;20199;-80
2024/03/05 12:39:36;;;;;;;11.40;9.97;;;;;;;;;;6240740;23;20161;-80
2024/03/05 12:42:06;;;;;;;12.20;10.10;;;;;;;;;;6240810;23;20172;-80
2024/03/05 12:44:34;;;;;;;11.87;9.90;;;;;;;;;;6240633;23;20157;-80
2024/03/05 12:47:05;;;;;;;12.70;10.40;;;;;;;;;;6240635;23;20169;-82
2024/03/05 12:49:40;;;;;;;13.07;9.57;;;;;;;;;;6239824;23;20173;-79
2024/03/05 12:52:08;;;;;;;12.13;9.77;;;;;;;;;;6239185;23;20248;-80
2024/03/05 12:54:35;;;;;;;11.97;10.17;;;;;;;;;;6240056;23;20173;-79
2024/03/05 12:57:03;;;;;;;11.37;9.57;;;;;;;;;;6240561;23;20172;-80
2024/03/05 12:59:31;;;;;;;12.63;9.53;;;;;;;;;;6240512;23;20176;-80
2024/03/05 13:01:58;;;;;;;12.37;10.37;;;;;;;;;;6240423;23;20165;-80
2024/03/05 13:04:26;;;;;;;14.60;10.63;;;;;;;;;;6240329;23;20164;-80
2024/03/05 13:06:53;;;;;;;12.70;10.27;;;;;;;;;;6240537;23;20164;-82
2024/03/05 13:09:21;;;;;;;11.23;9.87;;;;;;;;;;6213415;23;20231;-79
2024/03/05 13:11:49;;;;;;;11.37;8.97;;;;;;;;;;6239913;23;20264;-80
2024/03/05 13:14:21;;;;;;;10.87;9.00;;;;;;;;;;6242818;23;20153;-79
2024/03/05 13:16:50;;;;;;;13.27;9.40;;;;;;;;;;6242259;23;20165;-79
2024/03/05 13:19:18;;;;;;;11.17;8.77;;;;;;;;;;6242634;23;20165;-79
2024/03/05 13:21:45;;;;;;;11.93;8.97;;;;;;;;;;6242582;23;20663;-81
2024/03/05 13:24:13;;;;;;;10.23;7.97;;;;;;;;;;6240704;23;20640;-80
2024/03/05 13:26:41;;;;;;;8.00;7.10;;;;;;;;;;6242065;23;20370;-80
2024/03/05 13:29:08;;;;;;;9.33;6.50;;;;;;;;;;6242528;23;20161;-80
2024/03/05 13:31:35;;;;;;;7.80;6.40;;;;;;;;;;6216080;23;20185;-80
2024/03/05 13:34:04;;;;;;;8.10;6.67;;;;;;;;;;6241632;23;20227;-79
2024/03/05 13:36:31;;;;;;;9.23;7.57;;;;;;;;;;6242248;23;20169;-81
2024/03/05 13:38:59;;;;;;;8.33;6.50;;;;;;;;;;6242411;23;20181;-81
2024/03/05 13:41:28;;;;;;;9.13;7.50;;;;;;;;;;6242467;23;20175;-80
2024/03/05 13:43:57;;;;;;;9.53;7.10;;;;;;;;;;6216019;23;20176;-81
2024/03/05 13:46:26;;;;;;;8.93;7.40;;;;;;;;;;6242866;23;20185;-81
2024/03/05 13:48:58;;;;;;;9.43;8.10;;;;;;;;;;6242491;23;20172;-80
2024/03/05 13:51:26;;;;;;;9.57;8.40;;;;;;;;;;6215941;23;20273;-78
2024/03/05 13:53:53;;;;;;;9.53;7.60;;;;;;;;;;6242605;23;20168;-79
2024/03/05 13:56:21;;;;;;;10.10;8.17;;;;;;;;;;6216081;23;20181;-80
2024/03/05 13:58:48;;;;;;;10.97;9.00;;;;;;;;;;6242729;23;20172;-80
2024/03/05 14:01:16;;;;;;;12.10;9.13;;;;;;;;;;6242684;23;20181;-79
2024/03/05 14:03:43;;;;;;;10.10;8.47;;;;;;;;;;6215739;23;20173;-79
2024/03/05 14:06:10;;;;;;;10.87;8.40;;;;;;;;;;6242343;23;20167;-80
2024/03/05 14:08:37;;;;;;;9.83;8.17;;;;;;;;;;6242558;23;20239;-82
2024/03/05 14:11:07;;;;;;;10.20;8.70;;;;;;;;;;6241926;23;20262;-81
2024/03/05 14:13:34;;;;;;;11.27;8.57;;;;;;;;;;6242596;23;20200;-80
2024/03/05 14:16:06;;;;;;;9.70;8.40;;;;;;;;;;6242579;23;20173;-79
2024/03/05 14:18:34;;;;;;;10.37;8.97;;;;;;;;;;6242271;23;20731;-81
2024/03/05 14:21:04;;;;;;;11.90;8.73;;;;;;;;;;6242167;23;20165;-80
2024/03/05 14:23:34;;;;;;;11.00;9.43;;;;;;;;;;6215624;23;20188;-81
2024/03/05 14:26:04;;;;;;;11.47;8.67;;;;;;;;;;6241722;23;20185;-80
2024/03/05 14:28:32;;;;;;;9.83;8.03;;;;;;;;;;6242179;23;20172;-80
2024/03/05 14:30:59;;;;;;;9.87;8.30;;;;;;;;;;6242157;23;20185;-81
2024/03/05 14:33:26;;;;;;;8.93;7.77;;;;;;;;;;6242272;23;20177;-80
2024/03/05 14:35:54;;;;;;;9.60;7.83;;;;;;;;;;6215259;23;20172;-81